Time;durP1;ratioP1;P1;durP2;ratioP2;P2;SDS_P1;SDS_P2;PMS_P1;PMS_P2;Temp;Humidity;BMP_temperature;BMP_pressure;BME280_temperature;BME280_humidity;BME280_pressure;Samples;Min_cycle;Max_cycle;Signal;HPM_P1;HPM_P2
2023/05/12 00:00:38;;;;;;;2.80;1.90;;;19.50;79.20;;;;;;5041864;28;45328;-73
2023/05/12 00:03:05;;;;;;;2.85;2.08;;;19.50;79.40;;;;;;5042269;28;48534;-73
2023/05/12 00:05:32;;;;;;;2.40;2.03;;;19.50;79.40;;;;;;5042507;28;45177;-73
2023/05/12 00:07:59;;;;;;;2.35;1.67;;;19.50;79.40;;;;;;5042441;28;45401;-73
2023/05/12 00:10:27;;;;;;;2.28;1.75;;;19.50;79.30;;;;;;5042827;27;45453;-73
2023/05/12 00:12:54;;;;;;;1.92;1.73;;;19.50;79.30;;;;;;5042446;28;46106;-73
2023/05/12 00:15:22;;;;;;;2.55;1.80;;;19.50;79.30;;;;;;5033975;28;46223;-73
2023/05/12 00:17:51;;;;;;;2.63;1.95;;;19.50;79.20;;;;;;5042807;28;45239;-73
2023/05/12 00:20:18;;;;;;;2.13;1.75;;;19.50;79.30;;;;;;5042908;27;45475;-73
2023/05/12 00:22:44;;;;;;;2.65;1.77;;;19.50;79.30;;;;;;5042190;28;48385;-73
2023/05/12 00:25:11;;;;;;;2.22;1.67;;;19.50;79.40;;;;;;5041440;28;45402;-73
2023/05/12 00:27:38;;;;;;;2.30;1.73;;;19.50;79.30;;;;;;5042558;27;45380;-73
2023/05/12 00:30:07;;;;;;;1.52;1.40;;;19.50;79.30;;;;;;5034110;28;45297;-73
2023/05/12 00:32:35;;;;;;;1.92;1.73;;;19.50;79.50;;;;;;5042278;28;47379;-73
2023/05/12 00:35:02;;;;;;;2.78;1.70;;;19.50;79.60;;;;;;5041893;28;45420;-74
2023/05/12 00:37:29;;;;;;;4.18;1.70;;;19.50;79.60;;;;;;5042766;28;45165;-73
2023/05/12 00:39:56;;;;;;;2.17;1.75;;;19.50;79.80;;;;;;5042251;28;45514;-74
2023/05/12 00:42:23;;;;;;;2.42;1.60;;;19.50;79.80;;;;;;5042114;27;45349;-73
2023/05/12 00:44:50;;;;;;;1.85;1.40;;;19.50;79.80;;;;;;5041687;28;45424;-73
2023/05/12 00:47:16;;;;;;;1.52;1.40;;;19.50;79.80;;;;;;5040663;28;45236;-73
2023/05/12 00:49:44;;;;;;;2.08;1.55;;;19.50;79.80;;;;;;5042406;28;45179;-73
2023/05/12 00:52:11;;;;;;;2.47;1.75;;;19.50;79.80;;;;;;5039706;27;46303;-73
2023/05/12 00:54:39;;;;;;;2.53;1.92;;;19.50;79.80;;;;;;5041760;28;45326;-74
2023/05/12 00:57:06;;;;;;;2.38;1.77;;;19.50;79.80;;;;;;5041097;28;45293;-73
2023/05/12 00:59:33;;;;;;;1.92;1.52;;;19.50;79.70;;;;;;5041576;28;45179;-73
2023/05/12 01:02:00;;;;;;;2.35;1.73;;;19.50;79.60;;;;;;5041635;28;47018;-73
2023/05/12 01:04:28;;;;;;;1.95;1.52;;;19.50;79.50;;;;;;5041849;28;45471;-74
2023/05/12 01:07:04;;;;;;;4.10;1.65;;;19.50;79.50;;;;;;5042044;28;45259;-73
2023/05/12 01:09:30;;;;;;;1.48;1.27;;;19.50;79.50;;;;;;5041566;28;45376;-74
2023/05/12 01:11:57;;;;;;;1.80;1.65;;;19.50;79.50;;;;;;5041419;28;46840;-73
2023/05/12 01:14:24;;;;;;;2.15;1.67;;;19.50;79.50;;;;;;5040896;28;45942;-72
2023/05/12 01:16:53;;;;;;;2.30;1.83;;;19.50;79.60;;;;;;5040510;28;45513;-72
2023/05/12 01:19:34;;;;;;;2.10;1.70;;;19.50;79.80;;;;;;5040735;28;45696;-73
2023/05/12 01:22:02;;;;;;;1.90;1.60;;;19.50;79.80;;;;;;5040201;28;45296;-73
2023/05/12 01:24:32;;;;;;;2.20;1.50;;;19.50;79.80;;;;;;5040615;28;45543;-73
2023/05/12 01:27:00;;;;;;;2.28;1.65;;;19.50;80.80;;;;;;5040046;28;45288;-73
2023/05/12 01:29:28;;;;;;;1.48;1.30;;;19.50;79.90;;;;;;5041476;28;45548;-72
2023/05/12 01:31:56;;;;;;;2.17;1.33;;;19.50;80.00;;;;;;5041490;28;46971;-73
2023/05/12 01:34:23;;;;;;;1.70;1.50;;;19.50;80.00;;;;;;5040656;28;45270;-72
2023/05/12 01:36:50;;;;;;;2.03;1.40;;;19.50;80.00;;;;;;5040842;28;45251;-73
2023/05/12 01:39:17;;;;;;;2.13;1.50;;;19.50;80.10;;;;;;5040541;28;45470;-72
2023/05/12 01:41:43;;;;;;;1.23;1.13;;;19.50;80.00;;;;;;5041141;28;46318;-71
2023/05/12 01:44:11;;;;;;;2.88;1.05;;;19.50;79.90;;;;;;5041213;28;45711;-73
2023/05/12 01:46:38;;;;;;;1.25;1.10;;;19.50;79.80;;;;;;5040780;28;45230;-73
2023/05/12 01:49:05;;;;;;;2.15;1.40;;;19.50;79.80;;;;;;5041378;28;45409;-73
2023/05/12 01:51:32;;;;;;;2.10;1.42;;;19.50;79.80;;;;;;5039662;28;48178;-73
2023/05/12 01:53:58;;;;;;;2.15;1.30;;;19.50;79.70;;;;;;5041196;28;45456;-74
2023/05/12 01:56:25;;;;;;;1.00;0.90;;;19.50;79.70;;;;;;5041282;28;45421;-74
2023/05/12 01:58:52;;;;;;;1.60;1.20;;;19.50;79.60;;;;;;5041624;28;45386;-74
2023/05/12 02:01:22;;;;;;;1.48;0.85;;;19.50;79.70;;;;;;5041122;28;46868;-74
2023/05/12 02:03:48;;;;;;;1.92;1.20;;;19.50;79.70;;;;;;5041051;28;45476;-74
2023/05/12 02:06:15;;;;;;;1.10;1.00;;;19.50;79.80;;;;;;5040865;28;45346;-75
2023/05/12 02:08:42;;;;;;;0.80;0.77;;;19.50;79.80;;;;;;5041299;28;45232;-75
2023/05/12 02:11:09;;;;;;;2.92;0.88;;;19.50;79.90;;;;;;5044355;28;46845;-75
2023/05/12 02:13:36;;;;;;;1.02;0.82;;;19.40;79.80;;;;;;5044355;28;45309;-75
2023/05/12 02:16:03;;;;;;;0.68;0.65;;;19.40;79.70;;;;;;5044410;28;45396;-75
2023/05/12 02:18:32;;;;;;;1.27;0.90;;;19.40;79.90;;;;;;5044628;28;45711;-75
2023/05/12 02:20:58;;;;;;;1.23;0.68;;;19.40;79.90;;;;;;5044368;28;45443;-75
2023/05/12 02:23:25;;;;;;;1.08;0.50;;;19.40;79.70;;;;;;5044236;28;45293;-75
2023/05/12 02:25:52;;;;;;;0.95;0.75;;;19.40;79.60;;;;;;5044328;28;45309;-75
2023/05/12 02:28:19;;;;;;;0.90;0.60;;;19.40;79.60;;;;;;5044871;28;45669;-75
2023/05/12 02:30:47;;;;;;;0.73;0.60;;;19.40;79.60;;;;;;5044670;28;45254;-75
2023/05/12 02:33:14;;;;;;;0.47;0.47;;;19.40;79.60;;;;;;5045717;28;45165;-74
2023/05/12 02:35:43;;;;;;;1.00;0.68;;;19.40;79.50;;;;;;5044722;28;45237;-75
2023/05/12 02:38:09;;;;;;;0.65;0.50;;;19.40;79.50;;;;;;5044488;28;45339;-75
2023/05/12 02:40:36;;;;;;;0.52;0.50;;;19.40;79.50;;;;;;5044202;27;45221;-75
2023/05/12 02:43:03;;;;;;;0.70;0.50;;;19.40;79.40;;;;;;5043862;28;45405;-75
2023/05/12 02:45:30;;;;;;;0.85;0.70;;;19.40;79.50;;;;;;5043360;28;45246;-75
2023/05/12 02:47:57;;;;;;;0.43;0.40;;;19.40;79.70;;;;;;5044051;28;45549;-75
2023/05/12 02:50:24;;;;;;;0.63;0.60;;;19.40;79.80;;;;;;5043265;28;46294;-76
2023/05/12 02:52:52;;;;;;;0.90;0.70;;;19.40;79.90;;;;;;5043247;28;45426;-75
2023/05/12 02:55:19;;;;;;;0.90;0.40;;;19.30;79.90;;;;;;5043562;27;45311;-75
2023/05/12 02:57:45;;;;;;;1.30;0.68;;;19.30;79.90;;;;;;5043980;28;45336;-75
2023/05/12 03:00:13;;;;;;;0.68;0.63;;;19.30;79.90;;;;;;5043321;28;48481;-75
2023/05/12 03:02:40;;;;;;;0.50;0.50;;;19.30;80.00;;;;;;5043670;28;45274;-75
2023/05/12 03:05:08;;;;;;;1.67;0.40;;;19.30;80.10;;;;;;5043531;28;45317;-75
2023/05/12 03:07:35;;;;;;;1.05;0.43;;;19.30;80.10;;;;;;5043808;28;45167;-75
2023/05/12 03:10:03;;;;;;;0.40;0.40;;;19.30;80.10;;;;;;5030707;28;46376;-75
2023/05/12 03:12:30;;;;;;;0.40;0.40;;;19.30;79.90;;;;;;5036518;28;45346;-75
2023/05/12 03:14:57;;;;;;;0.60;0.60;;;19.30;79.90;;;;;;5043359;28;45272;-74
2023/05/12 03:17:24;;;;;;;0.55;0.40;;;19.40;80.00;;;;;;5043735;28;45493;-75
2023/05/12 03:19:51;;;;;;;0.75;0.50;;;19.40;80.00;;;;;;5043383;28;47049;-75
2023/05/12 03:22:18;;;;;;;0.30;0.30;;;19.40;79.90;;;;;;5042543;28;45446;-72
2023/05/12 03:24:45;;;;;;;0.38;0.38;;;19.40;79.90;;;;;;5043631;28;45197;-75
2023/05/12 03:27:13;;;;;;;0.50;0.40;;;19.40;79.80;;;;;;5043082;28;45256;-75
2023/05/12 03:29:40;;;;;;;0.75;0.60;;;19.40;79.80;;;;;;5043693;28;45586;-75
2023/05/12 03:32:07;;;;;;;0.30;0.30;;;19.40;79.80;;;;;;5043252;28;45349;-74
2023/05/12 03:34:34;;;;;;;0.45;0.45;;;19.40;79.80;;;;;;5043537;27;45287;-75
2023/05/12 03:37:01;;;;;;;0.35;0.30;;;19.40;80.00;;;;;;5043409;28;45287;-75
2023/05/12 03:39:28;;;;;;;1.08;0.47;;;19.40;80.00;;;;;;5043296;28;45200;-75
2023/05/12 03:41:54;;;;;;;0.40;0.30;;;19.40;80.10;;;;;;5043279;28;45329;-75
2023/05/12 03:44:22;;;;;;;0.40;0.40;;;19.40;80.10;;;;;;5043094;28;45234;-75
2023/05/12 03:46:49;;;;;;;0.40;0.40;;;19.40;80.10;;;;;;5042720;28;45548;-75
2023/05/12 03:49:16;;;;;;;0.85;0.40;;;19.40;80.20;;;;;;5043011;28;46435;-75
2023/05/12 03:51:43;;;;;;;0.35;0.35;;;19.40;80.10;;;;;;5041550;28;45186;-75
2023/05/12 03:54:09;;;;;;;0.40;0.40;;;19.40;80.20;;;;;;5043061;28;45210;-75
2023/05/12 03:56:36;;;;;;;0.32;0.32;;;19.40;80.10;;;;;;5042977;28;45597;-74
2023/05/12 03:59:03;;;;;;;0.30;0.30;;;19.40;80.10;;;;;;5042916;28;45477;-75
2023/05/12 04:01:31;;;;;;;0.47;0.35;;;19.40;80.10;;;;;;5043175;28;45451;-75
2023/05/12 04:03:58;;;;;;;0.65;0.40;;;19.40;79.90;;;;;;5042611;28;45286;-74
2023/05/12 04:06:25;;;;;;;0.40;0.38;;;19.40;79.90;;;;;;5042962;28;45532;-74
2023/05/12 04:08:51;;;;;;;0.20;0.20;;;19.40;80.00;;;;;;5042878;27;45285;-74
2023/05/12 04:11:18;;;;;;;0.43;0.30;;;19.40;79.90;;;;;;5042953;28;45255;-74
2023/05/12 04:13:45;;;;;;;0.20;0.20;;;19.40;79.80;;;;;;5043261;28;45483;-73
2023/05/12 04:16:12;;;;;;;0.60;0.40;;;19.40;79.80;;;;;;5042795;28;45188;-75
2023/05/12 04:18:40;;;;;;;0.20;0.20;;;19.40;79.70;;;;;;5035023;28;47525;-75
2023/05/12 04:21:06;;;;;;;0.20;0.20;;;19.40;79.70;;;;;;5042722;28;45413;-74
2023/05/12 04:23:33;;;;;;;0.30;0.25;;;19.40;79.70;;;;;;5042491;28;45419;-75
2023/05/12 04:26:03;;;;;;;0.20;0.20;;;19.40;79.70;;;;;;5042348;28;45401;-75
2023/05/12 04:28:30;;;;;;;0.30;0.30;;;19.40;79.70;;;;;;5042449;28;46359;-74
2023/05/12 04:31:02;;;;;;;0.38;0.38;;;19.40;79.70;;;;;;5042464;28;45505;-75
2023/05/12 04:33:29;;;;;;;0.20;0.20;;;19.40;79.80;;;;;;5042237;28;45361;-74
2023/05/12 04:35:57;;;;;;;0.20;0.20;;;19.40;79.90;;;;;;5042539;28;45261;-75
2023/05/12 04:38:24;;;;;;;0.30;0.25;;;19.40;80.00;;;;;;5042282;28;45309;-74
2023/05/12 04:40:51;;;;;;;0.30;0.22;;;19.40;80.00;;;;;;5042250;28;45325;-74
2023/05/12 04:43:18;;;;;;;0.30;0.30;;;19.40;80.10;;;;;;5042325;28;45244;-75
2023/05/12 04:45:45;;;;;;;0.28;0.28;;;19.40;80.10;;;;;;5041716;28;45608;-74
2023/05/12 04:48:11;;;;;;;0.30;0.30;;;19.40;80.10;;;;;;5041915;28;48273;-74
2023/05/12 04:50:38;;;;;;;0.38;0.30;;;19.40;80.10;;;;;;5041006;27;45456;-74
2023/05/12 04:53:06;;;;;;;0.20;0.20;;;19.40;81.10;;;;;;5041926;28;45419;-74
2023/05/12 04:55:33;;;;;;;0.20;0.20;;;19.40;80.00;;;;;;5042621;28;45315;-74
2023/05/12 04:58:00;;;;;;;0.28;0.28;;;19.40;80.10;;;;;;5042126;28;46721;-74
2023/05/12 05:00:27;;;;;;;0.40;0.40;;;19.50;80.10;;;;;;5040867;28;45239;-74
2023/05/12 05:02:54;;;;;;;0.77;0.38;;;19.40;80.10;;;;;;5042743;28;45308;-70
2023/05/12 05:05:20;;;;;;;0.30;0.30;;;19.40;80.10;;;;;;5042216;28;45310;-74
2023/05/12 05:07:47;;;;;;;0.25;0.20;;;19.40;79.90;;;;;;5041796;28;47521;-74
2023/05/12 05:10:15;;;;;;;0.30;0.30;;;19.40;79.80;;;;;;5041978;28;45348;-74
2023/05/12 05:12:42;;;;;;;0.30;0.30;;;19.40;79.60;;;;;;5041992;28;45309;-74
2023/05/12 05:15:10;;;;;;;0.40;0.22;;;19.40;79.60;;;;;;5041966;28;45459;-74
2023/05/12 05:17:38;;;;;;;0.20;0.20;;;19.40;79.60;;;;;;5042246;28;47956;-74
2023/05/12 05:20:06;;;;;;;0.20;0.20;;;19.50;79.60;;;;;;5041748;28;45235;-74
2023/05/12 05:22:32;;;;;;;0.75;0.20;;;19.50;79.50;;;;;;5042063;28;45337;-74
2023/05/12 05:24:59;;;;;;;0.10;0.10;;;19.50;79.50;;;;;;5040776;28;45413;-74
2023/05/12 05:27:28;;;;;;;0.10;0.10;;;19.50;79.40;;;;;;5041292;28;47952;-74
2023/05/12 05:29:54;;;;;;;0.43;0.32;;;19.50;79.50;;;;;;5041660;28;45308;-74
2023/05/12 05:32:21;;;;;;;0.40;0.28;;;19.50;79.40;;;;;;5041620;28;45281;-74
2023/05/12 05:34:48;;;;;;;0.25;0.25;;;19.50;79.40;;;;;;5041938;28;45267;-74
2023/05/12 05:37:14;;;;;;;0.20;0.20;;;19.50;79.40;;;;;;5041303;28;47673;-74
2023/05/12 05:39:41;;;;;;;0.20;0.20;;;19.50;79.30;;;;;;5041645;28;46213;-74
2023/05/12 05:42:08;;;;;;;0.30;0.30;;;19.50;79.40;;;;;;5041861;28;45321;-74
2023/05/12 05:44:36;;;;;;;0.40;0.30;;;19.50;79.40;;;;;;5040681;28;45489;-74
2023/05/12 05:47:03;;;;;;;0.30;0.28;;;19.50;79.50;;;;;;5040840;28;47876;-74
2023/05/12 05:49:30;;;;;;;0.22;0.22;;;19.50;79.50;;;;;;5041476;28;45437;-74
2023/05/12 05:51:57;;;;;;;0.20;0.20;;;19.50;79.60;;;;;;5040471;28;45321;-74
2023/05/12 05:54:24;;;;;;;0.30;0.30;;;19.50;79.70;;;;;;5041868;28;45377;-72
2023/05/12 05:56:51;;;;;;;0.32;0.32;;;19.50;79.70;;;;;;5041088;28;46307;-74
2023/05/12 05:59:17;;;;;;;0.30;0.30;;;19.50;79.70;;;;;;5041302;27;45251;-74
2023/05/12 06:01:45;;;;;;;0.68;0.38;;;19.50;79.70;;;;;;5040447;28;45317;-74
2023/05/12 06:04:12;;;;;;;0.30;0.30;;;19.50;79.60;;;;;;5041365;28;45249;-74
2023/05/12 06:06:39;;;;;;;0.38;0.38;;;19.50;79.50;;;;;;5041038;28;46442;-74
2023/05/12 06:09:07;;;;;;;0.30;0.30;;;19.50;79.50;;;;;;5041130;27;45198;-74
2023/05/12 06:11:34;;;;;;;0.65;0.50;;;19.50;79.50;;;;;;5041430;27;45510;-74
2023/05/12 06:14:01;;;;;;;0.20;0.20;;;19.50;79.50;;;;;;5041000;28;45311;-74
2023/05/12 06:16:27;;;;;;;0.30;0.30;;;19.50;80.50;;;;;;5040826;28;47503;-73
2023/05/12 06:18:56;;;;;;;0.50;0.30;;;19.50;79.50;;;;;;5041022;27;45326;-74
2023/05/12 06:21:22;;;;;;;0.30;0.30;;;19.50;79.40;;;;;;5032892;28;45433;-74
2023/05/12 06:23:50;;;;;;;0.63;0.40;;;19.50;79.40;;;;;;5040914;28;45192;-74
2023/05/12 06:26:17;;;;;;;0.47;0.47;;;19.50;79.40;;;;;;5040662;28;48551;-74
2023/05/12 06:28:43;;;;;;;0.50;0.40;;;19.50;79.50;;;;;;5040915;28;45261;-74
2023/05/12 06:31:10;;;;;;;0.40;0.32;;;19.50;79.50;;;;;;5041071;28;45167;-74
2023/05/12 06:33:37;;;;;;;0.35;0.35;;;19.50;79.60;;;;;;5041289;28;45442;-74
2023/05/12 06:36:06;;;;;;;2.70;0.45;;;19.50;79.60;;;;;;5040523;28;46496;-74
2023/05/12 06:38:33;;;;;;;2.25;0.50;;;19.50;79.60;;;;;;5040740;28;45252;-74
2023/05/12 06:41:00;;;;;;;0.40;0.40;;;19.50;79.60;;;;;;5041030;28;45170;-74
2023/05/12 06:43:26;;;;;;;0.30;0.30;;;19.50;79.50;;;;;;5041273;27;45271;-71
2023/05/12 06:45:55;;;;;;;0.30;0.30;;;19.50;79.50;;;;;;5039602;28;47772;-74
2023/05/12 06:48:23;;;;;;;0.38;0.38;;;19.50;79.40;;;;;;5032400;28;45435;-74
2023/05/12 06:50:49;;;;;;;0.55;0.43;;;19.50;79.40;;;;;;5040220;28;45462;-74
2023/05/12 06:53:18;;;;;;;0.40;0.40;;;19.50;79.20;;;;;;5040864;28;45398;-74
2023/05/12 06:55:45;;;;;;;0.40;0.40;;;19.50;79.20;;;;;;5041267;28;46538;-74
2023/05/12 06:58:12;;;;;;;0.50;0.50;;;19.50;79.20;;;;;;5043462;28;45400;-74
2023/05/12 07:00:39;;;;;;;0.40;0.40;;;19.50;79.10;;;;;;5044028;28;45345;-74
2023/05/12 07:03:08;;;;;;;0.30;0.30;;;19.50;79.10;;;;;;5043626;28;45724;-74
2023/05/12 07:05:35;;;;;;;0.57;0.50;;;19.50;79.10;;;;;;5042854;28;46409;-74
2023/05/12 07:08:02;;;;;;;0.52;0.52;;;19.50;79.10;;;;;;5043396;28;45291;-74
2023/05/12 07:10:32;;;;;;;0.47;0.40;;;19.50;79.10;;;;;;5043564;28;45298;-74
2023/05/12 07:12:59;;;;;;;0.30;0.30;;;19.50;79.10;;;;;;5043657;28;45523;-74
2023/05/12 07:15:26;;;;;;;1.58;0.50;;;19.50;79.10;;;;;;5042712;28;46778;-74
2023/05/12 07:17:54;;;;;;;0.50;0.50;;;19.50;79.10;;;;;;5043342;28;45979;-74
2023/05/12 07:20:21;;;;;;;0.43;0.43;;;19.50;79.20;;;;;;5043739;28;45272;-74
2023/05/12 07:22:48;;;;;;;0.68;0.50;;;19.50;79.10;;;;;;5043398;28;45287;-74
2023/05/12 07:25:14;;;;;;;0.70;0.45;;;19.50;79.00;;;;;;5042455;28;46506;-74
2023/05/12 07:27:43;;;;;;;0.55;0.50;;;19.50;79.00;;;;;;5040868;28;45251;-74
2023/05/12 07:30:10;;;;;;;0.45;0.45;;;19.50;79.00;;;;;;5043204;28;45408;-74
2023/05/12 07:32:36;;;;;;;0.63;0.60;;;19.50;79.00;;;;;;5043527;28;45518;-74
2023/05/12 07:35:04;;;;;;;0.52;0.52;;;19.50;79.00;;;;;;5042957;28;47992;-73
2023/05/12 07:37:30;;;;;;;0.60;0.60;;;19.50;80.00;;;;;;5043113;28;45376;-73
2023/05/12 07:39:58;;;;;;;0.50;0.50;;;19.50;78.90;;;;;;5042857;27;45439;-74
2023/05/12 07:42:24;;;;;;;0.65;0.43;;;19.50;78.90;;;;;;5035649;28;45296;-73
2023/05/12 07:44:52;;;;;;;0.50;0.50;;;19.50;78.80;;;;;;5042343;28;47534;-74
2023/05/12 07:47:19;;;;;;;1.02;0.50;;;19.50;78.70;;;;;;5042194;28;45447;-74
2023/05/12 07:49:46;;;;;;;0.50;0.50;;;19.50;78.70;;;;;;5042761;28;45307;-74
2023/05/12 07:52:13;;;;;;;1.73;0.35;;;19.50;78.60;;;;;;5041655;28;45335;-74
2023/05/12 07:54:40;;;;;;;0.73;0.43;;;19.50;78.60;;;;;;5042545;28;47631;-74
2023/05/12 07:57:06;;;;;;;0.43;0.40;;;19.50;78.70;;;;;;5042803;28;45385;-74
2023/05/12 07:59:33;;;;;;;0.70;0.63;;;19.50;78.60;;;;;;5042956;28;45268;-74
2023/05/12 08:02:01;;;;;;;0.50;0.50;;;19.50;78.60;;;;;;5043105;28;45242;-74
2023/05/12 08:04:28;;;;;;;0.98;0.50;;;19.50;79.70;;;;;;5042589;28;46277;-73
2023/05/12 08:06:55;;;;;;;0.55;0.50;;;19.50;78.60;;;;;;5042206;28;45332;-74
2023/05/12 08:09:22;;;;;;;0.60;0.57;;;19.50;78.60;;;;;;5042947;28;45341;-73
2023/05/12 08:11:49;;;;;;;0.50;0.40;;;19.50;78.50;;;;;;5043306;28;45189;-74
2023/05/12 08:14:16;;;;;;;0.75;0.50;;;19.50;78.60;;;;;;5042244;28;46588;-73
2023/05/12 08:16:44;;;;;;;0.43;0.43;;;19.50;78.60;;;;;;5042925;28;45512;-73
2023/05/12 08:19:12;;;;;;;0.57;0.57;;;19.50;78.50;;;;;;5042750;28;45332;-73
2023/05/12 08:21:39;;;;;;;0.40;0.40;;;19.50;78.50;;;;;;5042672;27;45597;-73
2023/05/12 08:24:06;;;;;;;0.50;0.50;;;19.50;78.50;;;;;;5040635;28;47003;-71
2023/05/12 08:26:33;;;;;;;0.65;0.50;;;19.50;78.50;;;;;;5022934;28;45374;-74
2023/05/12 08:29:00;;;;;;;0.60;0.60;;;19.50;78.50;;;;;;5031240;28;45278;-74
2023/05/12 08:31:27;;;;;;;0.50;0.50;;;19.50;78.40;;;;;;5043023;28;45195;-74
2023/05/12 08:33:54;;;;;;;0.40;0.40;;;19.50;78.40;;;;;;5042269;28;46623;-74
2023/05/12 08:36:22;;;;;;;0.43;0.43;;;19.50;78.30;;;;;;5042423;28;45278;-73
2023/05/12 08:38:49;;;;;;;1.02;0.50;;;19.50;78.20;;;;;;5042480;28;45420;-73
2023/05/12 08:41:20;;;;;;;0.95;0.50;;;19.50;78.20;;;;;;5042317;28;45337;-73
2023/05/12 08:43:51;;;;;;;0.50;0.50;;;19.50;78.10;;;;;;5042579;28;45346;-73
2023/05/12 08:46:18;;;;;;;0.73;0.50;;;19.50;77.80;;;;;;5040868;28;45302;-73
2023/05/12 08:48:46;;;;;;;0.38;0.38;;;19.50;77.90;;;;;;5042205;27;45400;-73
2023/05/12 08:51:14;;;;;;;0.50;0.50;;;19.50;77.80;;;;;;5041076;28;45320;-73
2023/05/12 08:53:42;;;;;;;0.45;0.45;;;19.50;77.80;;;;;;5042301;28;45385;-73
2023/05/12 08:56:12;;;;;;;0.55;0.40;;;19.50;77.80;;;;;;5042234;28;45349;-73
2023/05/12 08:58:39;;;;;;;1.83;0.40;;;19.50;77.80;;;;;;5042080;28;45340;-73
2023/05/12 09:01:07;;;;;;;0.47;0.47;;;19.50;77.80;;;;;;5042077;28;45342;-73
2023/05/12 09:03:34;;;;;;;0.50;0.50;;;19.50;77.80;;;;;;5042398;28;47022;-73
2023/05/12 09:06:02;;;;;;;0.30;0.30;;;19.50;77.80;;;;;;5041560;28;45254;-73
2023/05/12 09:08:30;;;;;;;0.73;0.50;;;19.50;77.80;;;;;;5042067;28;45343;-73
2023/05/12 09:10:59;;;;;;;0.75;0.70;;;19.50;77.80;;;;;;5041925;28;45283;-73
2023/05/12 09:13:32;;;;;;;0.40;0.40;;;19.50;77.80;;;;;;5041719;28;47773;-73
2023/05/12 09:16:01;;;;;;;0.50;0.50;;;19.50;77.80;;;;;;5041605;28;45300;-74
2023/05/12 09:18:41;;;;;;;0.30;0.30;;;19.50;77.80;;;;;;5040727;28;45341;-73
2023/05/12 09:21:08;;;;;;;0.60;0.60;;;19.50;77.80;;;;;;5041815;28;45543;-73
2023/05/12 09:23:34;;;;;;;0.50;0.50;;;19.50;77.80;;;;;;5041087;28;48198;-73
2023/05/12 09:26:02;;;;;;;0.60;0.50;;;19.50;77.80;;;;;;5041438;28;45210;-73
2023/05/12 09:28:37;;;;;;;0.30;0.30;;;19.50;77.80;;;;;;5041757;28;45294;-73
2023/05/12 09:31:15;;;;;;;0.85;0.65;;;19.50;77.80;;;;;;5041799;28;45337;-73
2023/05/12 09:33:42;;;;;;;0.98;0.47;;;19.50;77.80;;;;;;5041607;28;48237;-74
2023/05/12 09:36:09;;;;;;;0.40;0.40;;;19.50;77.80;;;;;;5041198;28;45432;-73
2023/05/12 09:38:35;;;;;;;0.60;0.60;;;19.50;77.80;;;;;;5041255;27;45493;-73
2023/05/12 09:41:04;;;;;;;0.57;0.43;;;19.50;77.80;;;;;;5041742;28;45584;-73
2023/05/12 09:43:30;;;;;;;0.63;0.40;;;19.50;77.80;;;;;;5041314;28;45735;-74
2023/05/12 09:45:57;;;;;;;0.70;0.40;;;19.50;77.80;;;;;;5040323;28;45312;-73
2023/05/12 09:48:24;;;;;;;0.50;0.50;;;19.50;77.80;;;;;;5041619;28;45286;-73
2023/05/12 09:50:52;;;;;;;0.30;0.30;;;19.50;77.80;;;;;;5041783;28;45265;-73
2023/05/12 09:53:21;;;;;;;0.45;0.40;;;19.50;77.80;;;;;;5041226;28;46414;-74
2023/05/12 09:55:49;;;;;;;0.40;0.40;;;19.60;77.90;;;;;;5041107;28;45264;-73
2023/05/12 09:58:20;;;;;;;0.50;0.40;;;19.60;77.90;;;;;;5041335;28;45215;-73
2023/05/12 10:00:47;;;;;;;0.40;0.35;;;19.60;77.90;;;;;;5041676;28;45352;-73
2023/05/12 10:03:15;;;;;;;0.77;0.60;;;19.60;77.90;;;;;;5041056;28;46293;-73
2023/05/12 10:05:48;;;;;;;0.30;0.30;;;19.60;77.90;;;;;;5041349;28;45278;-72
2023/05/12 10:08:20;;;;;;;0.40;0.40;;;19.60;77.90;;;;;;5041405;28;45252;-73
2023/05/12 10:10:49;;;;;;;0.60;0.50;;;19.60;77.90;;;;;;5041625;28;45336;-73
2023/05/12 10:13:18;;;;;;;0.50;0.30;;;19.60;78.70;;;;;;5040959;28;45732;-73
2023/05/12 10:15:47;;;;;;;0.50;0.50;;;19.60;77.50;;;;;;5040858;28;45808;-73
2023/05/12 10:18:15;;;;;;;0.88;0.47;;;19.60;77.40;;;;;;5041279;28;45233;-73
2023/05/12 10:20:44;;;;;;;0.47;0.47;;;19.60;77.50;;;;;;5041025;28;45248;-73
2023/05/12 10:23:13;;;;;;;0.50;0.40;;;19.60;77.60;;;;;;5040296;28;46377;-73
2023/05/12 10:25:42;;;;;;;0.50;0.50;;;19.60;77.90;;;;;;5040674;27;45287;-73
2023/05/12 10:28:09;;;;;;;0.60;0.60;;;19.60;77.80;;;;;;5040838;28;45349;-73
2023/05/12 10:30:39;;;;;;;0.32;0.32;;;19.60;77.80;;;;;;5042376;28;45294;-73
2023/05/12 10:33:10;;;;;;;0.30;0.30;;;19.50;77.70;;;;;;5043616;28;47510;-73
2023/05/12 10:35:38;;;;;;;0.50;0.50;;;19.60;77.40;;;;;;5043772;28;45546;-73
2023/05/12 10:38:10;;;;;;;0.50;0.50;;;19.50;77.30;;;;;;5044084;28;45383;-73
2023/05/12 10:40:37;;;;;;;0.47;0.40;;;19.60;77.50;;;;;;5044072;28;45352;-73
2023/05/12 10:43:04;;;;;;;0.40;0.40;;;19.60;77.50;;;;;;5043662;28;46436;-74
2023/05/12 10:45:37;;;;;;;0.40;0.40;;;19.60;77.30;;;;;;5043201;28;45496;-73
2023/05/12 10:48:08;;;;;;;0.65;0.30;;;19.60;77.30;;;;;;5044104;28;45249;-73
2023/05/12 10:50:34;;;;;;;1.08;0.50;;;19.60;77.20;;;;;;5043795;28;45309;-73
2023/05/12 10:53:01;;;;;;;0.30;0.30;;;19.60;77.10;;;;;;5043438;28;46594;-73
2023/05/12 10:55:33;;;;;;;0.50;0.50;;;19.60;77.10;;;;;;5043961;28;45399;-73
2023/05/12 10:58:08;;;;;;;0.85;0.60;;;19.60;77.10;;;;;;5043766;28;45421;-74
2023/05/12 11:00:45;;;;;;;0.52;0.50;;;19.60;77.00;;;;;;5043812;28;45457;-73
2023/05/12 11:03:13;;;;;;;1.05;0.63;;;19.60;77.00;;;;;;5043607;28;47096;-73
2023/05/12 11:05:40;;;;;;;0.40;0.40;;;19.60;77.00;;;;;;5043158;27;45269;-73
2023/05/12 11:08:07;;;;;;;0.98;0.55;;;19.60;76.90;;;;;;5043409;27;45382;-73
2023/05/12 11:10:34;;;;;;;0.40;0.40;;;19.60;76.90;;;;;;5043490;28;45491;-73
2023/05/12 11:13:02;;;;;;;0.50;0.50;;;19.60;76.80;;;;;;5043436;28;45303;-73
2023/05/12 11:15:30;;;;;;;0.77;0.50;;;19.60;76.70;;;;;;5043574;28;45227;-73
2023/05/12 11:17:58;;;;;;;0.50;0.50;;;19.60;76.70;;;;;;5043476;28;45235;-73
2023/05/12 11:20:25;;;;;;;0.50;0.47;;;19.60;76.60;;;;;;5043484;28;45479;-73
2023/05/12 11:22:53;;;;;;;0.47;0.47;;;19.60;76.50;;;;;;5043107;28;48340;-73
2023/05/12 11:25:20;;;;;;;0.38;0.38;;;19.60;76.50;;;;;;5042885;28;45289;-73
2023/05/12 11:27:48;;;;;;;0.30;0.30;;;19.60;76.50;;;;;;5043375;28;45272;-72
2023/05/12 11:30:16;;;;;;;0.60;0.60;;;19.60;76.60;;;;;;5042995;28;45441;-73
2023/05/12 11:32:43;;;;;;;0.50;0.50;;;19.60;76.50;;;;;;5042688;28;47979;-73
2023/05/12 11:35:13;;;;;;;1.25;0.50;;;19.60;76.50;;;;;;5042705;28;45491;-73
2023/05/12 11:37:42;;;;;;;0.60;0.40;;;19.60;76.50;;;;;;5043345;28;45311;-73
2023/05/12 11:40:16;;;;;;;0.52;0.47;;;19.60;76.40;;;;;;5043336;28;45401;-73
2023/05/12 11:42:47;;;;;;;0.52;0.40;;;19.60;76.40;;;;;;5041947;28;45514;-73
2023/05/12 11:45:24;;;;;;;0.30;0.30;;;19.60;76.30;;;;;;5043022;28;45280;-73
2023/05/12 11:47:52;;;;;;;0.90;0.47;;;19.60;76.10;;;;;;5043039;28;45258;-73
2023/05/12 11:50:24;;;;;;;0.68;0.52;;;19.60;76.10;;;;;;5042657;28;45478;-73
2023/05/12 11:52:52;;;;;;;0.55;0.52;;;19.60;76.10;;;;;;5043084;28;45331;-73
2023/05/12 11:55:24;;;;;;;0.90;0.50;;;19.60;76.10;;;;;;5042845;28;45342;-73
2023/05/12 11:57:59;;;;;;;0.98;0.40;;;19.60;76.10;;;;;;5042795;28;45380;-73
2023/05/12 12:00:31;;;;;;;0.50;0.50;;;19.60;76.00;;;;;;5027897;28;45438;-74
2023/05/12 12:03:08;;;;;;;0.35;0.35;;;19.60;75.90;;;;;;5042698;28;47738;-74
2023/05/12 12:05:37;;;;;;;0.35;0.35;;;19.60;75.70;;;;;;5042672;28;45381;-73
2023/05/12 12:08:08;;;;;;;0.60;0.60;;;19.60;75.70;;;;;;5042924;28;45518;-73
2023/05/12 12:10:36;;;;;;;0.90;0.40;;;19.60;75.80;;;;;;5042754;28;45569;-73
2023/05/12 12:13:03;;;;;;;0.80;0.50;;;19.60;75.90;;;;;;5043028;28;45372;-74
2023/05/12 12:15:30;;;;;;;0.50;0.50;;;19.60;75.90;;;;;;5042686;28;45239;-73
2023/05/12 12:17:57;;;;;;;1.40;0.28;;;19.70;75.90;;;;;;5042550;28;45216;-73
2023/05/12 12:20:24;;;;;;;0.63;0.52;;;19.70;75.90;;;;;;5042943;28;45540;-73
2023/05/12 12:22:53;;;;;;;0.43;0.43;;;19.70;75.80;;;;;;5042668;28;45738;-73
2023/05/12 12:25:21;;;;;;;0.40;0.40;;;19.70;75.80;;;;;;5042128;28;45397;-73
2023/05/12 12:27:48;;;;;;;1.40;0.50;;;19.70;75.80;;;;;;5042389;28;45187;-73
2023/05/12 12:30:15;;;;;;;1.10;0.50;;;19.70;75.70;;;;;;5042415;28;45437;-73
2023/05/12 12:32:42;;;;;;;0.73;0.50;;;19.60;75.60;;;;;;5042436;28;45409;-73
2023/05/12 12:35:10;;;;;;;0.60;0.60;;;19.60;75.50;;;;;;5042027;28;46097;-71
2023/05/12 12:37:37;;;;;;;1.15;0.52;;;19.60;75.50;;;;;;5042570;28;45380;-73
2023/05/12 12:40:08;;;;;;;1.08;0.60;;;19.60;75.60;;;;;;5042631;28;45452;-73
2023/05/12 12:42:36;;;;;;;0.73;0.57;;;19.60;75.50;;;;;;5042467;28;47010;-73
2023/05/12 12:45:03;;;;;;;1.05;0.80;;;19.60;75.60;;;;;;5042139;28;45590;-73
2023/05/12 12:47:30;;;;;;;0.60;0.60;;;19.70;75.70;;;;;;5041700;28;45282;-73
2023/05/12 12:49:57;;;;;;;0.50;0.50;;;19.60;75.70;;;;;;5042778;28;45559;-73